Time;durP1;ratioP1;P1;durP2;ratioP2;P2;SDS_P1;SDS_P2;PMS_P1;PMS_P2;Temp;Humidity;BMP_temperature;BMP_pressure;BME280_temperature;BME280_humidity;BME280_pressure;Samples;Min_cycle;Max_cycle;Signal;HPM_P1;HPM_P2
2024/01/07 00:01:37;;;;;;;108.30;64.55;;;9.30;1.00;;;;;;4930416;29;20042;-78
2024/01/07 00:04:04;;;;;;;164.95;91.07;;;9.30;99.90;;;;;;4929897;29;20054;-75
2024/01/07 00:06:32;;;;;;;216.13;124.07;;;9.30;99.90;;;;;;4926221;29;20048;-75
2024/01/07 00:08:59;;;;;;;141.38;82.40;;;9.30;1.00;;;;;;4929343;29;20043;-76
2024/01/07 00:11:26;;;;;;;93.22;52.45;;;9.20;99.90;;;;;;4906787;29;20598;-75
2024/01/07 00:13:55;;;;;;;108.10;56.92;;;9.10;99.90;;;;;;4924902;29;20070;-77
2024/01/07 00:16:23;;;;;;;147.77;82.95;;;9.10;1.00;;;;;;4925435;29;20512;-78
2024/01/07 00:18:50;;;;;;;155.48;92.68;;;9.10;1.00;;;;;;4909844;29;20415;-78
2024/01/07 00:21:18;;;;;;;149.38;92.15;;;9.10;99.90;;;;;;4911477;29;20043;-76
2024/01/07 00:23:45;;;;;;;166.13;100.20;;;9.20;1.00;;;;;;4927645;29;20119;-77
2024/01/07 00:26:13;;;;;;;143.85;92.20;;;9.20;1.00;;;;;;4914266;29;20048;-77
2024/01/07 00:28:40;;;;;;;141.35;86.78;;;9.30;99.90;;;;;;4934504;29;20048;-76
2024/01/07 00:31:09;;;;;;;138.77;83.97;;;9.30;1.00;;;;;;4918252;29;20047;-74
2024/01/07 00:33:37;;;;;;;152.35;85.70;;;9.50;1.00;;;;;;4907395;29;20072;-79
2024/01/07 00:36:05;;;;;;;120.65;70.63;;;9.50;97.80;;;;;;4926429;29;20103;-78
2024/01/07 00:38:33;;;;;;;145.93;80.68;;;9.40;1.00;;;;;;4924891;29;20408;-78
2024/01/07 00:41:00;;;;;;;139.82;79.95;;;9.50;99.90;;;;;;4925160;29;20119;-75
2024/01/07 00:43:27;;;;;;;152.68;80.88;;;9.50;1.00;;;;;;4926250;29;20044;-76
2024/01/07 00:45:55;;;;;;;158.73;83.03;;;9.50;99.90;;;;;;4930851;29;20047;-76
2024/01/07 00:48:24;;;;;;;150.32;83.88;;;9.50;1.00;;;;;;4931816;29;20127;-78
2024/01/07 00:50:51;;;;;;;145.38;78.97;;;9.50;1.00;;;;;;4925301;29;20417;-78
2024/01/07 00:53:19;;;;;;;150.35;83.60;;;9.50;99.90;;;;;;4924168;29;20098;-77
2024/01/07 00:55:46;;;;;;;134.23;75.95;;;9.50;99.90;;;;;;4907069;29;20588;-77
2024/01/07 00:58:14;;;;;;;110.75;65.00;;;9.50;89.00;;;;;;4924310;29;20487;-78
2024/01/07 01:00:41;;;;;;;107.47;64.80;;;9.50;99.90;;;;;;4907600;29;20048;-78
2024/01/07 01:03:09;;;;;;;123.90;69.97;;;9.40;1.00;;;;;;4907183;29;20075;-77
2024/01/07 01:05:37;;;;;;;125.78;70.95;;;9.40;1.00;;;;;;4907407;29;20063;-78
2024/01/07 01:08:06;;;;;;;129.85;71.72;;;9.50;99.90;;;;;;4907987;29;20488;-76
2024/01/07 01:10:33;;;;;;;125.95;72.10;;;9.50;34.50;;;;;;4923576;29;20087;-77
2024/01/07 01:13:00;;;;;;;124.13;70.40;;;9.60;1.00;;;;;;4907484;29;20448;-77
2024/01/07 01:15:28;;;;;;;128.15;72.65;;;9.60;99.90;;;;;;4924739;29;20088;-77
2024/01/07 01:17:55;;;;;;;124.38;71.45;;;9.60;1.00;;;;;;4906044;29;20107;-76
2024/01/07 01:20:23;;;;;;;140.38;77.70;;;9.60;1.00;;;;;;4924937;29;20047;-77
2024/01/07 01:22:51;;;;;;;118.22;67.90;;;9.60;1.00;;;;;;4925904;29;20060;-77
2024/01/07 01:25:19;;;;;;;116.10;65.85;;;9.60;1.00;;;;;;4907248;29;20431;-78
2024/01/07 01:27:46;;;;;;;115.63;64.38;;;9.60;1.00;;;;;;4906594;29;20062;-78
2024/01/07 01:30:15;;;;;;;116.70;66.60;;;9.60;1.00;;;;;;4922409;29;20031;-78
2024/01/07 01:32:43;;;;;;;108.90;65.22;;;9.70;1.00;;;;;;4923067;29;20469;-78
2024/01/07 01:35:10;;;;;;;111.75;64.50;;;9.70;99.90;;;;;;4929232;29;20190;-77
2024/01/07 01:37:38;;;;;;;106.00;61.15;;;9.70;99.90;;;;;;4913146;29;20048;-79
2024/01/07 01:52:34;;;;;;;91.07;56.75;;;9.80;1.00;;;;;;3318945;27;20071;-77
2024/01/07 01:55:49;;;;;;;108.50;69.03;;;9.90;1.00;;;;;;4861638;29;20058;-78
2024/01/07 02:29:28;;;;;;;84.78;54.00;;;10.10;1.00;;;;;;4728730;30;20063;-75
2024/01/07 02:39:51;;;;;;;;;;;;;;;;;;;;;
2024/01/07 03:27:51;;;;;;;;;;;;;;;;;;;;;
2024/01/07 04:11:48;;;;;;;61.63;38.90;;;9.40;1.00;;;;;;4851699;29;20137;-76
2024/01/07 04:30:12;;;;;;;;;;;;;;;;;;;;;
2024/01/07 04:37:50;;;;;;;59.33;38.08;;;9.30;1.00;;;;;;4724788;30;20368;-77
2024/01/07 06:34:41;;;;;;;;;;;;;;;;;;;;;
2024/01/07 07:51:41;;;;;;;54.80;37.67;;;9.70;1.00;;;;;;4736043;30;20067;-78
2024/01/07 07:57:25;;;;;;;55.20;38.70;;;9.70;1.00;;;;;;4748891;30;20044;-77
2024/01/07 08:00:13;;;;;;;54.25;39.67;;;9.60;1.00;;;;;;4747778;30;20060;-76
2024/01/07 08:02:49;;;;;;;51.28;36.92;;;9.60;94.70;;;;;;4729003;30;20084;-79
2024/01/07 08:05:18;;;;;;;57.30;36.53;;;9.70;1.00;;;;;;4763792;30;20142;-77
2024/01/07 08:15:29;;;;;;;58.33;37.85;;;9.70;99.90;;;;;;4699637;30;20540;-79
2024/01/07 08:22:01;;;;;;;56.33;38.53;;;9.80;1.00;;;;;;4795570;30;20089;-76
2024/01/07 08:43:17;;;;;;;56.90;39.95;;;9.70;1.00;;;;;;4792194;30;20043;-78
2024/01/07 08:45:45;;;;;;;57.63;37.53;;;9.70;1.00;;;;;;4774053;30;20066;-76
2024/01/07 08:48:17;;;;;;;55.10;36.67;;;9.70;99.90;;;;;;4774382;30;20055;-74
2024/01/07 08:50:53;;;;;;;54.65;37.08;;;9.70;99.90;;;;;;4792280;30;20140;-75
2024/01/07 08:53:45;;;;;;;57.55;37.35;;;9.70;1.00;;;;;;4777183;30;20080;-76
2024/01/07 08:56:25;;;;;;;58.90;38.92;;;9.80;1.00;;;;;;4783422;30;20057;-76
2024/01/07 09:06:48;;;;;;;59.40;40.58;;;9.80;99.90;;;;;;4582160;31;20065;-77
2024/01/07 10:11:09;;;;;;;;;;;;;;;;;;;;;
2024/01/07 10:43:10;;;;;;;87.28;56.38;;;8.80;99.90;;;;;;4788543;29;20420;-75
2024/01/07 10:55:48;;;;;;;70.47;47.88;;;9.00;99.90;;;;;;4936506;23;20047;-76
2024/01/07 10:58:59;;;;;;;71.78;44.92;;;9.00;99.90;;;;;;4939651;29;20078;-76
2024/01/07 11:22:14;;;;;;;57.60;43.28;;;8.70;99.90;;;;;;5807518;23;19938;-77
2024/01/07 11:25:44;;;;;;;;;;;;;;;;;;;;;
2024/01/07 11:32:49;;;;;;;66.07;45.25;;;8.90;99.90;;;;;;4878698;29;20053;-77
2024/01/07 11:38:39;;;;;;;60.15;43.00;;;8.90;99.90;;;;;;4905807;29;20063;-79
2024/01/07 11:41:32;;;;;;;61.35;44.05;;;8.90;99.90;;;;;;4875806;29;20049;-76
2024/01/07 11:44:20;;;;;;;62.55;43.95;;;8.90;99.90;;;;;;4886555;29;20092;-76
2024/01/07 11:47:04;;;;;;;60.72;43.10;;;9.00;99.90;;;;;;4895831;29;20056;-78
2024/01/07 11:49:51;;;;;;;63.20;43.72;;;9.00;99.90;;;;;;4882407;29;20056;-76
2024/01/07 11:58:57;;;;;;;59.28;41.08;;;9.00;99.90;;;;;;4915395;29;20409;-78
2024/01/07 12:01:35;;;;;;;64.15;42.22;;;9.00;99.90;;;;;;4912197;29;20107;-76
2024/01/07 12:04:07;;;;;;;63.58;44.75;;;9.10;99.90;;;;;;4918229;29;20076;-76
2024/01/07 12:06:44;;;;;;;75.80;48.05;;;9.10;99.90;;;;;;4936485;29;20063;-78
2024/01/07 12:09:14;;;;;;;63.60;44.10;;;9.20;99.90;;;;;;4936143;29;20060;-77
2024/01/07 12:11:43;;;;;;;60.20;42.17;;;9.20;99.90;;;;;;4914357;29;20059;-76
2024/01/07 12:14:24;;;;;;;62.20;42.08;;;9.20;99.90;;;;;;4925918;29;20483;-74
2024/01/07 12:16:59;;;;;;;62.40;45.00;;;9.20;99.90;;;;;;4929500;29;20078;-75
2024/01/07 12:19:28;;;;;;;62.33;44.33;;;9.30;99.90;;;;;;4915099;29;20055;-75
2024/01/07 12:22:09;;;;;;;70.97;48.90;;;9.20;99.90;;;;;;4921586;29;20048;-75
2024/01/07 12:24:40;;;;;;;75.63;43.72;;;9.10;99.90;;;;;;4943486;29;20080;-75
2024/01/07 12:27:08;;;;;;;59.55;42.60;;;9.10;99.90;;;;;;4942512;29;20045;-75
2024/01/07 12:29:37;;;;;;;60.65;44.25;;;8.90;99.90;;;;;;4950155;29;20040;-74
2024/01/07 12:32:10;;;;;;;67.75;44.95;;;8.90;99.90;;;;;;4925344;29;20056;-78
2024/01/07 12:34:40;;;;;;;66.65;45.38;;;9.00;99.90;;;;;;4928660;29;20056;-76
2024/01/07 12:37:15;;;;;;;57.25;40.47;;;9.00;99.90;;;;;;4925198;29;20072;-74
2024/01/07 12:39:43;;;;;;;57.63;40.00;;;9.10;99.90;;;;;;4921932;29;20442;-77
2024/01/07 12:42:13;;;;;;;54.35;38.88;;;9.10;99.90;;;;;;4921981;29;20051;-74
2024/01/07 12:44:48;;;;;;;52.85;36.45;;;8.80;99.90;;;;;;4918591;29;20120;-79
2024/01/07 12:47:18;;;;;;;57.65;39.42;;;8.80;99.90;;;;;;4924980;29;20096;-77
2024/01/07 12:49:45;;;;;;;48.83;34.65;;;8.60;99.90;;;;;;4906428;29;20052;-75
2024/01/07 12:52:13;;;;;;;67.32;45.58;;;8.60;99.90;;;;;;4933419;29;20041;-77
2024/01/07 12:54:41;;;;;;;62.63;42.20;;;8.60;99.90;;;;;;4908787;29;20076;-77
2024/01/07 12:57:09;;;;;;;57.78;41.75;;;8.70;99.90;;;;;;4910221;29;20045;-73
2024/01/07 12:59:36;;;;;;;47.83;34.60;;;8.80;99.90;;;;;;4911475;29;20051;-76
2024/01/07 13:02:05;;;;;;;59.90;37.38;;;8.70;99.90;;;;;;4924290;29;20044;-75
2024/01/07 13:04:34;;;;;;;55.50;37.45;;;8.70;99.90;;;;;;4935968;29;20052;-75
2024/01/07 13:07:03;;;;;;;60.22;41.25;;;8.70;99.90;;;;;;4916849;29;20032;-75
2024/01/07 13:09:36;;;;;;;62.08;42.65;;;8.70;99.90;;;;;;4915013;29;20052;-75
2024/01/07 13:12:08;;;;;;;57.83;44.15;;;8.80;99.90;;;;;;4911494;29;20058;-76
2024/01/07 13:14:42;;;;;;;58.58;44.78;;;8.80;99.90;;;;;;4914053;29;20128;-77
2024/01/07 13:17:11;;;;;;;58.55;44.05;;;8.80;99.90;;;;;;4920241;29;20052;-77
2024/01/07 13:19:39;;;;;;;57.10;43.88;;;8.80;99.90;;;;;;4950161;29;20112;-76
2024/01/07 13:22:07;;;;;;;62.58;47.40;;;8.90;99.90;;;;;;4933788;29;20127;-76
2024/01/07 13:24:34;;;;;;;66.05;49.08;;;8.80;99.90;;;;;;4928199;29;20063;-76
2024/01/07 13:27:02;;;;;;;74.45;51.83;;;8.80;99.90;;;;;;4946623;29;20051;-76
2024/01/07 13:29:30;;;;;;;81.28;56.28;;;8.90;99.90;;;;;;4950902;29;20046;-75
2024/01/07 13:31:59;;;;;;;84.95;58.15;;;8.80;99.90;;;;;;4939206;29;20040;-76
2024/01/07 13:34:28;;;;;;;80.82;55.20;;;8.80;99.90;;;;;;4919150;29;20527;-75
2024/01/07 13:36:56;;;;;;;81.70;52.70;;;8.80;99.90;;;;;;4918198;29;20582;-76
2024/01/07 13:39:24;;;;;;;82.35;51.60;;;8.80;99.90;;;;;;4914746;29;20495;-76
2024/01/07 13:41:53;;;;;;;91.28;60.97;;;8.80;99.90;;;;;;4940370;29;20095;-75
2024/01/07 13:44:21;;;;;;;91.55;62.50;;;9.00;99.90;;;;;;4917409;29;20075;-77
2024/01/07 13:46:50;;;;;;;92.15;63.08;;;9.00;99.90;;;;;;4930522;29;20046;-73
2024/01/07 13:49:18;;;;;;;94.55;63.92;;;9.00;99.90;;;;;;4934093;29;20050;-78
2024/01/07 13:51:47;;;;;;;81.40;53.03;;;9.00;99.90;;;;;;4919993;29;20055;-76
2024/01/07 13:54:16;;;;;;;79.15;52.30;;;9.00;99.90;;;;;;4931369;29;20477;-75
2024/01/07 13:56:44;;;;;;;79.13;51.75;;;8.90;99.90;;;;;;4929922;29;20108;-75
2024/01/07 13:59:12;;;;;;;73.50;48.15;;;8.90;99.90;;;;;;4942601;29;20044;-76
2024/01/07 14:01:42;;;;;;;68.68;45.67;;;8.90;99.90;;;;;;4917842;29;20086;-76
2024/01/07 14:04:09;;;;;;;67.07;45.50;;;8.90;99.90;;;;;;4933035;29;20090;-77
2024/01/07 14:06:37;;;;;;;66.47;44.45;;;8.90;99.90;;;;;;4913487;29;20048;-75
2024/01/07 14:09:08;;;;;;;63.40;43.28;;;8.90;99.90;;;;;;4909247;29;20373;-78
2024/01/07 14:11:36;;;;;;;62.15;43.88;;;8.90;99.90;;;;;;4912230;29;20052;-77
2024/01/07 14:14:04;;;;;;;53.22;35.92;;;8.90;99.90;;;;;;4910790;29;20051;-76
2024/01/07 14:16:32;;;;;;;46.88;31.35;;;8.90;99.90;;;;;;4913013;29;20040;-77
2024/01/07 14:19:00;;;;;;;36.25;24.90;;;8.80;99.90;;;;;;4932548;29;20063;-77
2024/01/07 14:21:27;;;;;;;30.15;19.50;;;8.80;99.90;;;;;;4930778;29;20099;-78
2024/01/07 14:23:55;;;;;;;25.77;16.95;;;8.80;99.90;;;;;;4913843;29;20063;-78
2024/01/07 14:26:27;;;;;;;26.50;16.60;;;8.70;99.90;;;;;;4929818;29;20040;-77
2024/01/07 14:28:59;;;;;;;21.98;14.95;;;8.70;99.90;;;;;;4909764;29;20056;-77
2024/01/07 14:31:27;;;;;;;17.65;12.13;;;8.60;99.90;;;;;;4910613;29;20058;-76
2024/01/07 14:33:55;;;;;;;18.80;11.65;;;8.60;99.90;;;;;;4924601;29;20047;-77
2024/01/07 14:36:23;;;;;;;18.85;10.43;;;8.60;99.90;;;;;;4923025;29;20079;-77
2024/01/07 14:38:51;;;;;;;15.25;10.20;;;8.50;99.90;;;;;;4940299;29;20043;-76
2024/01/07 14:41:19;;;;;;;13.95;8.43;;;8.40;99.90;;;;;;4943523;29;20076;-76
2024/01/07 14:43:49;;;;;;;12.07;7.93;;;8.40;99.90;;;;;;4940407;29;20044;-78
2024/01/07 14:46:20;;;;;;;11.23;7.07;;;8.30;99.90;;;;;;4919512;29;20062;-76
2024/01/07 14:51:46;;;;;;;10.93;7.10;;;8.10;99.90;;;;;;4926756;29;20141;-76
2024/01/07 14:54:14;;;;;;;10.25;7.15;;;8.00;99.90;;;;;;4936781;29;20052;-75
2024/01/07 14:56:47;;;;;;;11.18;8.25;;;7.80;99.90;;;;;;4909249;29;20051;-77
2024/01/07 14:59:27;;;;;;;13.05;8.95;;;7.80;99.90;;;;;;4912425;29;20044;-75
2024/01/07 15:01:55;;;;;;;16.45;10.98;;;7.60;99.90;;;;;;4910660;29;20051;-76
2024/01/07 15:04:23;;;;;;;10.55;7.32;;;7.60;99.90;;;;;;4929073;29;20044;-78
2024/01/07 15:06:52;;;;;;;15.02;9.73;;;7.60;99.90;;;;;;4912829;29;20040;-75
2024/01/07 15:09:21;;;;;;;13.43;7.97;;;7.50;99.90;;;;;;4909955;29;20048;-75
2024/01/07 15:11:48;;;;;;;11.73;7.75;;;7.50;99.90;;;;;;4930758;29;20054;-77
2024/01/07 15:14:26;;;;;;;18.85;13.10;;;7.40;99.90;;;;;;4910248;29;20481;-75
2024/01/07 15:20:40;;;;;;;10.38;6.65;;;7.50;99.90;;;;;;4902652;29;20060;-75
2024/01/07 15:23:08;;;;;;;12.75;8.63;;;7.30;99.90;;;;;;4896579;29;20041;-78
2024/01/07 15:25:38;;;;;;;15.18;11.07;;;7.10;99.90;;;;;;4900589;29;20044;-79
2024/01/07 15:28:09;;;;;;;11.80;7.32;;;7.10;99.90;;;;;;4903461;29;20053;-76
2024/01/07 15:30:40;;;;;;;7.82;5.65;;;7.20;99.90;;;;;;4905505;29;20051;-76
2024/01/07 15:33:08;;;;;;;6.88;4.22;;;7.20;99.90;;;;;;4908218;29;20180;-77
2024/01/07 15:35:41;;;;;;;7.10;4.97;;;7.10;99.90;;;;;;4917414;29;20095;-77
2024/01/07 15:38:15;;;;;;;6.85;5.22;;;7.10;99.90;;;;;;4910622;29;20052;-77
2024/01/07 15:40:46;;;;;;;8.18;5.35;;;7.10;99.90;;;;;;4910964;29;20120;-77
2024/01/07 15:43:18;;;;;;;10.50;6.53;;;7.00;99.90;;;;;;4916799;29;20121;-76
2024/01/07 15:55:36;;;;;;;16.60;11.30;;;7.10;99.90;;;;;;5020377;23;20082;-75
2024/01/07 15:58:08;;;;;;;12.50;8.48;;;7.10;99.90;;;;;;4952519;29;20068;-79
2024/01/07 16:08:29;;;;;;;11.77;7.55;;;6.80;99.90;;;;;;5833410;23;20115;-80
2024/01/07 16:21:09;;;;;;;14.18;9.60;;;6.50;99.90;;;;;;4893676;29;20453;-75
2024/01/07 16:23:48;;;;;;;14.15;8.63;;;6.50;99.90;;;;;;4945108;29;20095;-74
2024/01/07 16:27:10;;;;;;;15.05;8.20;;;6.60;99.90;;;;;;4925245;29;20042;-77
2024/01/07 16:30:16;;;;;;;15.77;9.00;;;6.50;99.90;;;;;;4924277;29;20737;-79
2024/01/07 16:42:54;;;;;;;12.85;9.18;;;6.30;99.90;;;;;;5154735;23;20051;-79
2024/01/07 16:45:23;;;;;;;11.13;7.35;;;6.30;99.90;;;;;;4946842;29;20039;-78
2024/01/07 16:47:51;;;;;;;10.70;8.40;;;6.20;99.90;;;;;;4919192;29;20150;-77
2024/01/07 16:50:21;;;;;;;11.65;8.60;;;6.10;99.90;;;;;;4938760;29;20047;-76
2024/01/07 17:00:23;;;;;;;18.08;12.52;;;6.20;99.90;;;;;;4927291;29;20060;-77
2024/01/07 17:03:19;;;;;;;18.27;12.35;;;6.30;99.90;;;;;;4905956;29;20044;-79
2024/01/07 17:09:17;;;;;;;21.55;16.35;;;6.20;99.90;;;;;;4914531;29;20055;-76
2024/01/07 17:11:45;;;;;;;24.90;17.30;;;6.10;99.90;;;;;;4908174;29;20400;-76
2024/01/07 17:14:26;;;;;;;23.70;18.38;;;6.00;99.90;;;;;;4924911;29;20095;-76
2024/01/07 17:16:54;;;;;;;23.80;17.58;;;5.90;99.90;;;;;;4926156;29;20069;-76
2024/01/07 17:19:27;;;;;;;24.80;16.00;;;5.90;99.90;;;;;;4923005;29;20412;-77
2024/01/07 17:21:56;;;;;;;22.15;16.90;;;5.80;99.90;;;;;;4906399;29;20056;-75
2024/01/07 17:24:23;;;;;;;19.50;14.90;;;5.80;99.90;;;;;;4920832;29;20063;-77
2024/01/07 17:26:52;;;;;;;23.60;16.77;;;5.70;99.90;;;;;;4906743;29;20072;-80
2024/01/07 17:29:21;;;;;;;19.42;14.73;;;5.50;99.90;;;;;;4907210;29;20071;-76
2024/01/07 17:31:48;;;;;;;18.15;13.48;;;5.60;99.90;;;;;;4908314;29;20091;-77
2024/01/07 17:34:16;;;;;;;21.00;15.93;;;5.50;99.90;;;;;;4906495;29;20056;-75
2024/01/07 17:36:45;;;;;;;18.60;13.73;;;5.50;99.90;;;;;;4962161;23;20043;-85
2024/01/07 17:39:13;;;;;;;19.25;15.48;;;5.40;99.90;;;;;;4976987;28;20039;-81
2024/01/07 17:41:50;;;;;;;19.45;14.50;;;5.40;99.90;;;;;;4966547;28;20028;-88
2024/01/07 17:44:18;;;;;;;18.83;13.88;;;5.40;99.90;;;;;;4954849;29;20044;-80
2024/01/07 17:46:45;;;;;;;21.40;14.30;;;5.40;99.90;;;;;;4948500;29;20063;-81
2024/01/07 17:49:13;;;;;;;17.30;12.77;;;5.40;99.90;;;;;;4967698;28;20058;-83
2024/01/07 17:51:44;;;;;;;19.15;13.40;;;5.40;99.90;;;;;;4969627;28;20090;-83
2024/01/07 17:54:14;;;;;;;20.67;13.90;;;5.30;99.90;;;;;;4945525;29;20057;-86
2024/01/07 17:57:10;;;;;;;19.73;13.45;;;5.30;99.90;;;;;;4962259;29;20058;-86
2024/01/07 17:59:40;;;;;;;21.25;15.18;;;5.30;99.90;;;;;;4948658;29;20042;-89
2024/01/07 18:02:10;;;;;;;20.23;14.35;;;5.30;99.90;;;;;;4951558;29;20051;-88
2024/01/07 18:04:39;;;;;;;22.70;14.57;;;5.30;99.90;;;;;;4950225;28;20091;-87
2024/01/07 18:07:10;;;;;;;19.40;14.50;;;5.30;99.90;;;;;;4951005;28;20039;-87
2024/01/07 18:09:55;;;;;;;18.45;13.75;;;5.30;99.90;;;;;;4950461;28;20067;-86
2024/01/07 18:12:23;;;;;;;19.15;13.75;;;5.30;99.90;;;;;;4951796;28;20039;-87
2024/01/07 18:14:51;;;;;;;20.60;13.90;;;5.30;99.90;;;;;;4951085;29;20043;-84
2024/01/07 18:17:18;;;;;;;18.60;13.35;;;5.40;99.90;;;;;;4954383;29;20047;-84
2024/01/07 18:19:49;;;;;;;20.23;13.50;;;5.40;99.90;;;;;;4951018;29;20075;-87
2024/01/07 18:22:21;;;;;;;16.50;12.23;;;5.30;99.90;;;;;;4969171;28;20038;-88
2024/01/07 18:24:51;;;;;;;18.35;13.55;;;5.30;99.90;;;;;;4953465;28;20125;-88
2024/01/07 18:27:25;;;;;;;18.42;12.57;;;5.30;99.90;;;;;;4956499;29;20063;-89
2024/01/07 18:29:59;;;;;;;16.50;11.52;;;5.30;99.90;;;;;;4936027;29;20042;-89
2024/01/07 18:32:27;;;;;;;21.50;14.15;;;5.20;99.90;;;;;;4953740;28;20035;-87
2024/01/07 18:34:55;;;;;;;20.38;12.68;;;5.20;99.90;;;;;;4960386;28;20036;-87
2024/01/07 18:37:28;;;;;;;19.90;13.57;;;5.20;99.90;;;;;;4968356;28;20047;-87
2024/01/07 18:40:01;;;;;;;17.08;12.10;;;5.20;99.90;;;;;;4952324;28;20027;-87
2024/01/07 18:42:29;;;;;;;18.13;11.40;;;5.10;99.90;;;;;;4952240;29;20031;-87
2024/01/07 18:44:58;;;;;;;17.23;10.13;;;5.10;99.90;;;;;;4955965;28;20054;-89
2024/01/07 18:47:27;;;;;;;14.88;9.75;;;5.00;99.90;;;;;;4953445;29;20032;-86
2024/01/07 18:49:55;;;;;;;16.02;9.82;;;4.90;99.90;;;;;;4952332;29;20087;-87
2024/01/07 18:52:23;;;;;;;13.13;9.18;;;4.80;99.90;;;;;;4948174;29;20036;-87
2024/01/07 18:55:03;;;;;;;14.80;9.45;;;4.70;99.90;;;;;;4948308;29;20040;-85
2024/01/07 18:57:33;;;;;;;16.45;10.65;;;4.70;99.90;;;;;;4950452;29;20139;-84
2024/01/07 19:00:25;;;;;;;15.15;9.73;;;4.70;99.90;;;;;;4950059;29;20071;-87
2024/01/07 19:02:54;;;;;;;17.17;11.10;;;4.70;99.90;;;;;;4947474;29;20032;-86
2024/01/07 19:05:22;;;;;;;19.35;11.80;;;4.70;99.90;;;;;;4950038;29;20058;-86
2024/01/07 19:07:50;;;;;;;16.27;10.93;;;4.70;99.90;;;;;;4942184;29;20066;-88
2024/01/07 19:10:28;;;;;;;17.25;10.95;;;4.60;99.90;;;;;;4936430;29;20054;-86
2024/01/07 19:15:44;;;;;;;16.40;9.43;;;4.70;99.90;;;;;;4950302;29;20044;-86
2024/01/07 19:18:12;;;;;;;15.00;10.88;;;4.60;99.90;;;;;;4943936;29;20044;-85
2024/01/07 19:20:41;;;;;;;15.15;9.98;;;4.60;99.90;;;;;;4925916;29;20047;-84
2024/01/07 19:23:09;;;;;;;14.43;9.98;;;4.60;99.90;;;;;;4945993;29;20048;-85
2024/01/07 19:25:39;;;;;;;14.93;10.02;;;4.60;99.90;;;;;;4927785;29;20075;-83
2024/01/07 19:28:11;;;;;;;15.68;10.60;;;4.50;99.90;;;;;;4930468;29;20075;-85
2024/01/07 19:30:40;;;;;;;15.43;10.95;;;4.60;99.90;;;;;;4928334;29;20115;-84
2024/01/07 19:33:08;;;;;;;19.60;12.77;;;4.50;99.90;;;;;;4933551;29;20128;-86
2024/01/07 19:35:36;;;;;;;18.02;11.98;;;4.50;99.90;;;;;;4928901;29;20545;-86
2024/01/07 19:38:04;;;;;;;23.77;14.50;;;4.50;99.90;;;;;;4940726;29;20094;-85
2024/01/07 19:40:32;;;;;;;19.25;13.05;;;4.50;99.90;;;;;;4936372;29;20043;-83
2024/01/07 19:43:01;;;;;;;18.30;13.02;;;4.50;99.90;;;;;;4959009;29;20051;-85
2024/01/07 19:45:28;;;;;;;20.70;16.05;;;4.40;99.90;;;;;;4954262;29;20051;-83
2024/01/07 19:47:56;;;;;;;29.90;20.80;;;4.40;99.90;;;;;;4946701;29;20043;-83
2024/01/07 19:50:25;;;;;;;32.35;24.02;;;4.30;99.90;;;;;;4933085;29;20075;-84
2024/01/07 19:52:53;;;;;;;32.22;24.02;;;4.20;99.90;;;;;;4929168;29;20124;-85
2024/01/07 19:55:20;;;;;;;34.03;26.95;;;4.20;99.90;;;;;;4931768;29;20048;-82
2024/01/07 19:57:48;;;;;;;34.67;27.35;;;4.20;99.90;;;;;;4923647;29;20103;-85
2024/01/07 20:00:36;;;;;;;32.85;26.95;;;4.10;99.90;;;;;;4947081;29;20056;-83
2024/01/07 20:03:33;;;;;;;34.90;28.08;;;4.00;99.90;;;;;;4951310;29;20115;-83
2024/01/07 20:06:01;;;;;;;43.67;32.15;;;3.90;99.90;;;;;;4972158;28;20047;-84
2024/01/07 20:08:29;;;;;;;47.70;36.70;;;3.80;99.90;;;;;;4951424;29;20055;-83
2024/01/07 20:10:58;;;;;;;48.80;37.13;;;3.80;99.90;;;;;;4951241;29;20028;-84
2024/01/07 20:13:26;;;;;;;56.53;38.15;;;3.70;99.90;;;;;;4951673;29;20027;-84
2024/01/07 20:16:05;;;;;;;50.70;40.35;;;3.70;99.90;;;;;;4949036;29;20051;-84
2024/01/07 20:18:47;;;;;;;55.42;41.55;;;3.70;99.90;;;;;;4970086;29;20043;-83
2024/01/07 20:21:37;;;;;;;57.00;42.08;;;3.70;99.90;;;;;;4948843;29;20035;-84
2024/01/07 20:24:06;;;;;;;52.63;40.50;;;3.60;99.90;;;;;;4972361;28;20039;-84
2024/01/07 20:27:09;;;;;;;54.60;41.72;;;3.60;99.90;;;;;;4950712;29;20058;-84
2024/01/07 20:29:36;;;;;;;46.65;35.38;;;3.60;99.90;;;;;;4951005;29;20032;-84
2024/01/07 20:32:20;;;;;;;37.03;27.77;;;3.60;99.90;;;;;;4948262;29;20038;-85
2024/01/07 20:34:51;;;;;;;28.38;21.48;;;3.60;99.90;;;;;;4957810;29;20052;-85
2024/01/07 20:37:23;;;;;;;26.35;19.40;;;3.60;99.90;;;;;;4931231;29;20101;-84
2024/01/07 20:40:06;;;;;;;22.90;17.83;;;3.60;99.90;;;;;;4913229;29;20078;-84
2024/01/07 20:42:43;;;;;;;20.50;16.70;;;3.60;99.90;;;;;;4930743;29;20048;-85
2024/01/07 20:45:11;;;;;;;22.63;16.67;;;3.60;99.90;;;;;;4940274;29;20086;-84
2024/01/07 20:47:42;;;;;;;24.65;17.27;;;3.60;99.90;;;;;;4931560;29;20096;-83
2024/01/07 20:50:11;;;;;;;22.65;17.52;;;3.60;99.90;;;;;;4936461;29;20049;-84
2024/01/07 20:52:39;;;;;;;25.70;18.92;;;3.60;99.90;;;;;;4919167;29;20120;-83
2024/01/07 20:55:39;;;;;;;26.98;18.95;;;3.60;99.90;;;;;;4920165;29;20039;-84
2024/01/07 20:58:11;;;;;;;29.45;20.63;;;3.60;99.90;;;;;;4934913;29;20033;-83
2024/01/07 21:00:39;;;;;;;36.28;22.25;;;3.60;99.90;;;;;;4939902;29;20073;-87
2024/01/07 21:06:29;;;;;;;35.97;20.60;;;3.60;99.90;;;;;;4926557;29;20063;-86
2024/01/07 21:09:00;;;;;;;35.92;22.58;;;3.50;99.90;;;;;;4906372;29;20050;-84
2024/01/07 21:11:27;;;;;;;33.83;22.98;;;3.50;99.90;;;;;;4914467;29;20040;-86
2024/01/07 21:13:57;;;;;;;33.35;22.92;;;3.60;99.90;;;;;;4909498;29;20047;-85
2024/01/07 21:16:25;;;;;;;32.85;22.80;;;3.60;99.90;;;;;;4905601;29;20515;-84
2024/01/07 21:18:52;;;;;;;33.67;22.85;;;3.60;99.90;;;;;;4918081;29;20044;-86
2024/01/07 21:21:24;;;;;;;39.80;24.15;;;3.50;99.90;;;;;;4917188;29;20052;-83
2024/01/07 21:23:54;;;;;;;36.03;24.00;;;3.60;99.90;;;;;;4921547;29;20450;-86
2024/01/07 21:26:54;;;;;;;38.25;24.65;;;3.50;99.90;;;;;;4919968;29;20044;-85
2024/01/07 21:29:38;;;;;;;37.20;24.13;;;3.50;99.90;;;;;;4909641;29;20052;-86
2024/01/07 21:32:09;;;;;;;36.40;24.02;;;3.60;99.90;;;;;;4919092;29;20059;-82
2024/01/07 21:34:58;;;;;;;38.40;25.55;;;3.60;99.90;;;;;;4920376;29;20040;-86
2024/01/07 21:37:26;;;;;;;33.05;23.50;;;3.50;99.90;;;;;;4914230;29;20135;-82
2024/01/07 21:40:01;;;;;;;37.10;25.48;;;3.50;99.90;;;;;;4912642;29;20040;-86
2024/01/07 21:42:29;;;;;;;36.75;25.85;;;3.50;99.90;;;;;;4902719;29;20512;-81
2024/01/07 21:45:05;;;;;;;41.92;28.75;;;3.60;99.90;;;;;;4910676;29;20108;-84
2024/01/07 21:47:32;;;;;;;;;;;3.50;99.90;;;;;;4904976;29;20059;-83
2024/01/07 21:49:59;;;;;;;38.60;26.92;;;3.50;99.90;;;;;;4909426;29;19923;-82
2024/01/07 21:52:30;;;;;;;37.53;24.80;;;3.40;99.90;;;;;;4909615;29;20067;-82
2024/01/07 21:55:01;;;;;;;32.13;22.23;;;3.40;99.90;;;;;;4905916;29;20051;-82
2024/01/07 21:57:32;;;;;;;32.53;22.77;;;3.40;99.90;;;;;;4909459;29;20480;-82
2024/01/07 21:59:59;;;;;;;30.48;21.42;;;3.40;99.90;;;;;;4906103;29;20044;-81
2024/01/07 22:02:29;;;;;;;34.05;23.77;;;3.40;99.90;;;;;;4911023;29;20135;-81
2024/01/07 22:04:58;;;;;;;35.08;24.48;;;3.50;99.90;;;;;;4901342;29;20135;-83
2024/01/07 22:07:25;;;;;;;32.20;21.70;;;3.50;99.90;;;;;;4904995;29;20048;-83
2024/01/07 22:09:53;;;;;;;28.02;20.52;;;3.50;99.90;;;;;;4902573;29;20054;-83
2024/01/07 22:12:22;;;;;;;30.05;21.35;;;3.50;99.90;;;;;;4915313;29;20071;-82
2024/01/07 22:14:51;;;;;;;27.48;19.95;;;3.50;99.90;;;;;;4903703;29;20457;-83
2024/01/07 22:17:19;;;;;;;26.55;20.15;;;3.50;99.90;;;;;;4917103;29;20065;-81
2024/01/07 22:19:47;;;;;;;27.05;19.02;;;3.50;99.90;;;;;;4922712;29;20032;-83
2024/01/07 22:22:14;;;;;;;27.30;19.98;;;3.50;99.90;;;;;;4907656;29;20081;-82
2024/01/07 22:24:42;;;;;;;25.77;18.80;;;3.50;99.90;;;;;;4924949;29;20044;-82
2024/01/07 22:27:10;;;;;;;27.23;18.58;;;3.50;99.90;;;;;;4926137;29;20048;-83
2024/01/07 22:29:41;;;;;;;25.67;18.65;;;3.40;99.90;;;;;;4903923;29;20044;-83
2024/01/07 22:32:09;;;;;;;28.60;19.25;;;3.40;99.90;;;;;;4909964;29;20048;-82
2024/01/07 22:34:37;;;;;;;27.70;19.30;;;3.40;99.90;;;;;;4917528;29;20044;-81
2024/01/07 22:37:05;;;;;;;29.10;19.60;;;3.40;99.90;;;;;;4948773;29;20063;-82
2024/01/07 22:39:32;;;;;;;29.92;18.98;;;3.40;99.90;;;;;;4931092;29;20047;-84
2024/01/07 22:42:00;;;;;;;32.00;20.27;;;3.40;99.90;;;;;;4944627;29;20047;-82
2024/01/07 22:44:27;;;;;;;34.88;22.90;;;3.30;99.90;;;;;;4954228;29;20433;-81
2024/01/07 22:46:57;;;;;;;29.75;20.75;;;3.40;99.90;;;;;;4938576;29;20036;-82
2024/01/07 22:49:24;;;;;;;32.28;21.85;;;3.40;99.90;;;;;;4926058;29;20613;-83
2024/01/07 22:51:53;;;;;;;30.95;21.20;;;3.40;99.90;;;;;;4950862;29;20043;-83
2024/01/07 22:54:21;;;;;;;32.30;22.05;;;3.30;99.90;;;;;;4929155;29;20052;-81
2024/01/07 22:56:50;;;;;;;28.17;19.95;;;3.40;99.90;;;;;;4955378;29;20095;-84